Terminal Aerodrome Forecast
Issued by NWS

Home | Current Version | Previous Version | Graphics & Text | Print | Product List | Glossary On
Versions: 1 2 3 4 5 6 7 8 9 10 11 12 13 14 15 16 17 18 19 20 21 22 23 24 25 26 27 28 29 30 31
892
FTUS43 KBIS 230528
TAFDIK
TAF
KDIK 230528Z 2306/2406 10014G19KT P6SM -SHRA OVC025
     FM230900 10015G22KT P6SM VCSH OVC012
     FM231100 09016G22KT 4SM -SHRA BR OVC008
      TEMPO 2312/2316 1SM -SHRA BR OVC003
     FM231600 09013G19KT 3SM SHRA BR OVC003
     FM232100 09013G18KT 2SM BR VCSH OVC005=

USA.gov is the U.S. government's official web portal to all federal, state and local government web resources and services.